createdAt,value
2022-10-13T00:01:12.709Z,81.00
2022-10-13T00:03:42.042Z,81.30
2022-10-13T00:06:12.276Z,81.30
2022-10-13T00:08:42.708Z,81.60
2022-10-13T00:11:13.030Z,81.70
2022-10-13T00:13:41.919Z,81.60
2022-10-13T00:16:11.502Z,81.70
2022-10-13T00:18:39.756Z,81.90
2022-10-13T00:21:09.609Z,82.10
2022-10-13T00:23:38.875Z,82.00
2022-10-13T00:26:11.946Z,82.20
2022-10-13T00:28:40.702Z,83.10
2022-10-13T00:31:17.850Z,82.60
2022-10-13T00:33:46.529Z,82.80
2022-10-13T00:36:14.801Z,82.60
2022-10-13T00:38:43.775Z,82.70
2022-10-13T00:41:13.600Z,82.90
2022-10-13T00:44:03.925Z,82.80
2022-10-13T00:46:35.503Z,82.90
2022-10-13T00:49:09.208Z,83.10
2022-10-13T00:51:41.992Z,83.10
2022-10-13T00:54:12.693Z,82.80
2022-10-13T00:56:43.804Z,82.60
2022-10-13T00:59:22.831Z,82.20
2022-10-13T01:01:51.561Z,86.10
2022-10-13T01:04:23.555Z,88.50
2022-10-13T01:06:52.344Z,89.40
2022-10-13T01:09:20.486Z,89.60
2022-10-13T01:12:02.641Z,86.10
2022-10-13T01:14:37.585Z,84.20
2022-10-13T01:17:13.764Z,82.70
2022-10-13T01:20:29.334Z,81.50
2022-10-13T01:23:13.457Z,80.10
2022-10-13T01:26:09.956Z,79.10
2022-10-13T01:29:15.255Z,79.40
2022-10-13T01:31:51.086Z,82.70
2022-10-13T01:34:24.406Z,81.20
2022-10-13T01:36:58.973Z,80.90
2022-10-13T01:39:36.429Z,79.50
2022-10-13T01:42:13.563Z,81.00
2022-10-13T01:44:46.320Z,79.80
2022-10-13T01:47:18.519Z,78.60
2022-10-13T01:49:47.683Z,79.10
2022-10-13T01:52:19.149Z,78.60
2022-10-13T01:54:50.003Z,78.60
2022-10-13T01:57:32.403Z,78.70
2022-10-13T02:00:02.809Z,77.50
2022-10-13T02:02:48.746Z,77.40
2022-10-13T02:05:25.933Z,77.30
2022-10-13T02:08:01.285Z,77.90
2022-10-13T02:10:37.654Z,77.50
2022-10-13T02:13:08.048Z,77.60
2022-10-13T02:15:46.176Z,76.80
2022-10-13T02:18:18.375Z,76.80
2022-10-13T02:20:47.248Z,77.00
2022-10-13T02:23:17.866Z,77.30
2022-10-13T02:25:47.169Z,77.60
2022-10-13T02:28:16.675Z,77.20
2022-10-13T02:30:46.476Z,77.50
2022-10-13T02:33:16.764Z,77.50
2022-10-13T02:35:45.254Z,76.70
2022-10-13T02:38:13.539Z,76.60
2022-10-13T02:40:41.657Z,76.20
2022-10-13T02:43:09.929Z,76.30
2022-10-13T02:45:38.148Z,76.70
2022-10-13T02:48:06.670Z,76.40
2022-10-13T02:50:36.474Z,76.30
2022-10-13T02:53:04.723Z,76.30
2022-10-13T02:55:32.863Z,76.40
2022-10-13T02:58:00.969Z,76.20
2022-10-13T03:00:29.185Z,77.10
2022-10-13T03:02:57.668Z,76.50
2022-10-13T03:05:25.877Z,76.60
2022-10-13T03:07:55.418Z,76.70
2022-10-13T03:10:23.716Z,77.10
2022-10-13T03:12:53.271Z,76.80
2022-10-13T03:15:21.451Z,77.10
2022-10-13T03:17:50.851Z,76.80
2022-10-13T03:20:19.331Z,77.50
2022-10-13T03:22:49.929Z,77.00
2022-10-13T03:25:19.818Z,77.20
2022-10-13T03:27:48.068Z,77.30
2022-10-13T03:30:16.367Z,77.70
2022-10-13T03:32:44.600Z,77.00
2022-10-13T03:35:12.784Z,77.40
2022-10-13T03:37:41.190Z,77.50
2022-10-13T03:40:10.945Z,77.60
2022-10-13T03:42:40.897Z,77.80
2022-10-13T03:45:09.974Z,77.80
2022-10-13T03:47:38.678Z,78.00
2022-10-13T03:50:08.178Z,79.30
2022-10-13T03:52:36.467Z,78.60
2022-10-13T03:55:05.186Z,79.10
2022-10-13T03:57:33.333Z,79.80
2022-10-13T04:00:03.991Z,80.40
2022-10-13T04:02:40.868Z,80.20
2022-10-13T04:05:09.614Z,80.10
2022-10-13T04:07:37.725Z,80.00
2022-10-13T04:10:13.622Z,81.00
2022-10-13T04:12:41.815Z,80.80
2022-10-13T04:15:12.414Z,80.50
2022-10-13T04:17:40.598Z,79.50
2022-10-13T04:20:10.109Z,78.90
2022-10-13T04:22:38.529Z,78.50
2022-10-13T04:25:08.187Z,78.30
2022-10-13T04:27:38.306Z,78.70
2022-10-13T04:30:08.027Z,78.70
2022-10-13T04:32:37.802Z,78.50
2022-10-13T04:35:06.810Z,78.50
2022-10-13T04:37:35.000Z,79.40
2022-10-13T04:40:03.200Z,79.80
2022-10-13T04:42:31.380Z,79.50
2022-10-13T04:44:59.526Z,79.40
2022-10-13T04:47:27.620Z,79.60
2022-10-13T04:49:57.274Z,79.20
2022-10-13T04:52:25.693Z,79.10
2022-10-13T04:54:55.152Z,80.20
2022-10-13T04:57:23.338Z,80.20
2022-10-13T04:59:51.430Z,80.10
2022-10-13T05:02:20.255Z,80.30
2022-10-13T05:04:48.782Z,79.90
2022-10-13T05:07:18.882Z,81.00
2022-10-13T05:09:48.116Z,83.30
2022-10-13T05:12:16.930Z,84.00
2022-10-13T05:14:45.374Z,83.30
2022-10-13T05:17:13.628Z,83.00
2022-10-13T05:19:42.175Z,82.10
2022-10-13T05:22:10.355Z,81.50
2022-10-13T05:24:44.714Z,80.70
2022-10-13T05:27:14.545Z,80.00
2022-10-13T05:29:42.835Z,79.60
2022-10-13T05:32:10.954Z,80.80
2022-10-13T05:34:39.094Z,85.60
2022-10-13T05:37:07.588Z,87.40
2022-10-13T05:39:35.894Z,84.80
2022-10-13T05:42:05.779Z,83.20
2022-10-13T05:44:34.036Z,82.40
2022-10-13T05:47:07.193Z,84.30
2022-10-13T05:49:39.739Z,84.80
2022-10-13T05:52:11.640Z,83.40
2022-10-13T05:54:43.293Z,82.50
2022-10-13T05:57:17.969Z,81.80
2022-10-13T05:59:50.517Z,81.50
2022-10-13T06:02:24.229Z,81.70
2022-10-13T06:04:55.927Z,82.90
2022-10-13T06:07:25.033Z,83.40
2022-10-13T06:09:53.346Z,88.30
2022-10-13T06:12:23.306Z,88.20
2022-10-13T06:14:51.916Z,91.60
2022-10-13T06:17:20.128Z,94.20
2022-10-13T06:19:48.603Z,95.30
2022-10-13T06:22:17.949Z,96.70
2022-10-13T06:24:46.377Z,97.00
2022-10-13T06:27:14.644Z,97.00
2022-10-13T06:29:44.763Z,95.50
2022-10-13T06:32:13.244Z,95.10
2022-10-13T06:34:41.448Z,95.70
2022-10-13T06:37:10.261Z,95.70
2022-10-13T06:39:38.579Z,95.50
2022-10-13T06:42:06.815Z,95.80
2022-10-13T06:44:39.351Z,96.20
2022-10-13T06:47:09.095Z,96.10
2022-10-13T06:49:37.512Z,95.30
2022-10-13T06:52:05.902Z,93.60
2022-10-13T06:54:34.059Z,93.20
2022-10-13T06:57:02.307Z,95.10
2022-10-13T06:59:30.661Z,95.00
2022-10-13T07:01:58.812Z,95.50
2022-10-13T07:04:28.768Z,95.60
2022-10-13T07:06:59.453Z,94.40
2022-10-13T07:09:28.147Z,94.40
2022-10-13T07:11:56.361Z,94.50
2022-10-13T07:14:24.719Z,94.90
2022-10-13T07:16:52.928Z,94.70
2022-10-13T07:19:21.406Z,94.80
2022-10-13T07:21:51.152Z,95.30
2022-10-13T07:24:19.376Z,95.50
2022-10-13T07:26:47.652Z,94.60
2022-10-13T07:29:16.164Z,94.20
2022-10-13T07:31:44.569Z,94.30
2022-10-13T07:34:13.376Z,94.00
2022-10-13T07:36:42.064Z,94.10
2022-10-13T07:39:11.959Z,94.40
2022-10-13T07:41:40.661Z,94.20
2022-10-13T07:44:08.844Z,93.60
2022-10-13T07:46:36.956Z,93.10
2022-10-13T07:49:05.119Z,92.30
2022-10-13T07:51:33.287Z,91.30
2022-10-13T07:54:01.455Z,91.00
2022-10-13T07:56:31.146Z,90.60
2022-10-13T07:58:59.273Z,90.30
2022-10-13T08:01:27.432Z,90.50
2022-10-13T08:03:57.012Z,90.90
2022-10-13T08:06:25.063Z,91.20
2022-10-13T08:08:55.405Z,91.60
2022-10-13T08:11:24.483Z,92.20
2022-10-13T08:13:56.124Z,91.60
2022-10-13T08:16:24.291Z,91.70
2022-10-13T08:18:53.060Z,92.30
2022-10-13T08:24:13.068Z,93.40
2022-10-13T08:26:42.383Z,93.60
2022-10-13T08:29:28.196Z,93.60
2022-10-13T08:31:57.015Z,92.70
2022-10-13T08:34:26.552Z,92.80
2022-10-13T08:36:56.680Z,91.70
2022-10-13T08:39:25.879Z,91.40
2022-10-13T08:41:55.347Z,91.40
2022-10-13T08:47:24.912Z,89.80
2022-10-13T08:49:57.715Z,90.50
2022-10-13T08:52:30.512Z,89.80
2022-10-13T08:54:59.499Z,89.50
2022-10-13T08:57:27.884Z,89.20
2022-10-13T08:59:57.446Z,88.90
2022-10-13T09:02:30.493Z,89.00
2022-10-13T09:05:03.266Z,89.10
2022-10-13T09:07:35.321Z,89.20
2022-10-13T09:10:03.572Z,88.40
2022-10-13T09:12:33.928Z,88.50
2022-10-13T09:15:07.324Z,88.30
2022-10-13T09:17:37.553Z,88.00
2022-10-13T09:20:09.238Z,87.40
2022-10-13T09:22:38.759Z,88.00
2022-10-13T09:25:17.526Z,88.00
2022-10-13T09:27:49.180Z,86.90
2022-10-13T09:30:31.951Z,86.00
2022-10-13T09:33:18.505Z,87.00
2022-10-13T09:35:48.629Z,87.20
2022-10-13T09:38:19.878Z,86.50
2022-10-13T09:41:00.218Z,86.30
2022-10-13T09:43:36.001Z,86.60
2022-10-13T09:46:14.332Z,86.60
2022-10-13T09:48:46.187Z,86.30
2022-10-13T09:51:33.591Z,86.80
2022-10-13T09:54:08.577Z,87.00
2022-10-13T09:56:42.665Z,86.80
2022-10-13T09:59:22.388Z,87.20
2022-10-13T10:01:56.256Z,88.00
2022-10-13T10:04:30.774Z,88.60
2022-10-13T10:06:59.197Z,89.50
2022-10-13T10:09:35.701Z,89.30
2022-10-13T10:12:05.465Z,89.70
2022-10-13T10:14:35.212Z,89.20
2022-10-13T10:17:13.284Z,89.50
2022-10-13T10:19:53.522Z,89.20
2022-10-13T10:22:32.473Z,89.60
2022-10-13T10:25:09.900Z,90.20
2022-10-13T10:27:44.058Z,89.10
2022-10-13T10:30:18.151Z,89.50
2022-10-13T10:32:54.530Z,87.60
2022-10-13T10:35:39.778Z,89.00
2022-10-13T10:38:23.973Z,88.20
2022-10-13T10:41:00.089Z,88.20
2022-10-13T10:43:40.894Z,88.00
2022-10-13T10:46:18.156Z,88.00
2022-10-13T10:48:50.391Z,86.60
2022-10-13T10:51:19.831Z,87.00
2022-10-13T10:53:57.137Z,86.90
2022-10-13T10:56:33.082Z,86.70
2022-10-13T10:59:17.859Z,86.20
2022-10-13T11:01:53.181Z,86.20
2022-10-13T11:04:37.642Z,85.70
2022-10-13T11:07:11.103Z,86.00
2022-10-13T11:10:17.445Z,86.10
2022-10-13T11:13:04.952Z,85.30
2022-10-13T11:15:43.213Z,85.30
2022-10-13T11:18:48.927Z,84.20
2022-10-13T11:21:18.816Z,82.90
2022-10-13T11:23:49.296Z,83.20
2022-10-13T11:26:32.357Z,83.60
2022-10-13T11:29:01.596Z,82.60
2022-10-13T11:31:49.584Z,79.70
2022-10-13T11:34:29.336Z,81.40
2022-10-13T11:37:03.564Z,79.50
2022-10-13T11:40:15.282Z,79.00
2022-10-13T11:43:08.454Z,79.90
2022-10-13T11:46:01.796Z,78.50
2022-10-13T11:48:59.607Z,77.90
2022-10-13T11:51:36.869Z,77.50
2022-10-13T11:54:22.929Z,75.90
2022-10-13T11:56:53.455Z,75.10
2022-10-13T11:59:24.018Z,75.40
2022-10-13T12:01:55.562Z,75.50
2022-10-13T12:04:25.603Z,75.00
2022-10-13T12:07:01.443Z,75.10
2022-10-13T12:09:32.708Z,75.40
2022-10-13T12:12:04.419Z,74.50
2022-10-13T12:17:23.768Z,73.10
2022-10-13T12:19:54.292Z,72.40
2022-10-13T12:22:22.817Z,73.10
2022-10-13T12:25:01.168Z,73.40
2022-10-13T12:27:33.725Z,73.00
2022-10-13T12:30:02.810Z,73.40
2022-10-13T12:32:33.611Z,73.80
2022-10-13T12:35:12.288Z,73.10
2022-10-13T12:37:41.533Z,73.50
2022-10-13T12:40:16.570Z,73.50
2022-10-13T12:42:46.492Z,73.20
2022-10-13T12:45:17.803Z,72.60
2022-10-13T12:47:51.805Z,72.70
2022-10-13T12:50:39.345Z,71.90
2022-10-13T12:53:17.159Z,72.10
2022-10-13T12:55:58.973Z,73.10
2022-10-13T12:58:30.251Z,73.60
2022-10-13T13:01:11.159Z,73.50
2022-10-13T13:03:40.964Z,73.60
2022-10-13T13:06:29.804Z,73.00
2022-10-13T13:09:23.101Z,72.70
2022-10-13T13:12:07.773Z,73.50
2022-10-13T13:14:38.683Z,72.80
2022-10-13T13:17:12.222Z,72.60
2022-10-13T13:19:41.347Z,72.80
2022-10-13T13:22:11.728Z,73.70
2022-10-13T13:24:40.843Z,73.60
2022-10-13T13:27:21.916Z,73.40
2022-10-13T13:29:50.305Z,74.10
2022-10-13T13:32:20.507Z,73.60
2022-10-13T13:34:48.879Z,74.40
2022-10-13T13:37:24.949Z,73.10
2022-10-13T13:39:53.511Z,73.00
2022-10-13T13:42:22.996Z,73.30
2022-10-13T13:44:51.187Z,73.60
2022-10-13T13:47:21.869Z,73.00
2022-10-13T13:49:51.477Z,72.50
2022-10-13T13:52:20.715Z,71.10
2022-10-13T13:54:50.711Z,70.90
2022-10-13T13:57:20.030Z,71.00
2022-10-13T13:59:49.864Z,70.80
2022-10-13T14:02:21.101Z,71.30
2022-10-13T14:04:49.275Z,71.60
2022-10-13T14:07:19.163Z,72.10
2022-10-13T14:09:49.179Z,72.80
2022-10-13T14:12:17.526Z,71.30
2022-10-13T14:14:46.102Z,73.00
2022-10-13T14:17:16.259Z,72.60
2022-10-13T14:19:44.383Z,72.10
2022-10-13T14:22:12.441Z,73.50
2022-10-13T14:24:40.611Z,72.20
2022-10-13T14:27:10.193Z,71.60
2022-10-13T14:29:38.635Z,71.80
2022-10-13T14:32:07.279Z,72.60
2022-10-13T14:34:37.517Z,73.10
2022-10-13T14:37:05.830Z,72.20
2022-10-13T14:39:33.959Z,73.10
2022-10-13T14:42:02.259Z,73.30
2022-10-13T14:44:30.425Z,73.80
2022-10-13T14:46:58.816Z,74.10
2022-10-13T14:49:27.181Z,75.00
2022-10-13T14:51:56.878Z,74.00
2022-10-13T14:54:27.682Z,74.80
2022-10-13T14:56:55.999Z,75.90
2022-10-13T14:59:24.123Z,76.00
2022-10-13T15:01:52.463Z,76.80
2022-10-13T15:04:20.611Z,75.20
2022-10-13T15:06:48.844Z,74.30
2022-10-13T15:09:18.638Z,74.40
2022-10-13T15:11:47.863Z,74.10
2022-10-13T15:14:16.100Z,73.80
2022-10-13T15:16:44.411Z,72.80
2022-10-13T15:19:12.799Z,73.90
2022-10-13T15:21:41.891Z,74.70
2022-10-13T15:24:11.734Z,74.50
2022-10-13T15:26:41.378Z,73.90
2022-10-13T15:29:09.608Z,74.60
2022-10-13T15:31:38.572Z,74.00
2022-10-13T15:34:06.784Z,73.40
2022-10-13T15:36:35.235Z,74.40
2022-10-13T15:39:03.736Z,73.30
2022-10-13T15:41:31.895Z,73.90
2022-10-13T15:44:01.515Z,72.90
2022-10-13T15:46:31.551Z,72.20
2022-10-13T15:49:00.078Z,72.10
2022-10-13T15:51:28.229Z,71.30
2022-10-13T15:53:56.423Z,71.20
2022-10-13T15:56:24.588Z,71.00
2022-10-13T15:58:52.937Z,71.30
2022-10-13T16:01:22.744Z,71.00
2022-10-13T16:03:54.833Z,71.70
2022-10-13T16:06:23.356Z,71.80
2022-10-13T16:08:51.931Z,72.60
2022-10-13T16:11:22.560Z,72.90
2022-10-13T16:13:52.649Z,73.20
2022-10-13T16:16:23.130Z,73.40
2022-10-13T16:18:51.915Z,73.70
2022-10-13T16:21:23.763Z,73.90
2022-10-13T16:23:52.222Z,74.10
2022-10-13T16:26:20.565Z,75.20
2022-10-13T16:28:48.758Z,74.80
2022-10-13T16:31:18.460Z,75.10
2022-10-13T16:33:48.058Z,75.50
2022-10-13T16:36:18.198Z,75.50
2022-10-13T16:38:47.744Z,75.60
2022-10-13T16:41:17.479Z,76.00
2022-10-13T16:43:46.716Z,76.30
2022-10-13T16:46:17.378Z,77.50
2022-10-13T16:48:47.877Z,77.70
2022-10-13T16:51:18.565Z,77.70
2022-10-13T16:53:49.639Z,78.00
2022-10-13T16:56:21.922Z,78.10
2022-10-13T16:58:50.379Z,78.10
2022-10-13T17:01:18.585Z,78.00
2022-10-13T17:03:50.316Z,77.70
2022-10-13T17:06:20.043Z,78.50
2022-10-13T17:08:55.323Z,78.00
2022-10-13T17:11:25.699Z,77.90
2022-10-13T17:13:54.568Z,78.20
2022-10-13T17:16:22.752Z,78.60
2022-10-13T17:18:52.331Z,79.00
2022-10-13T17:21:21.990Z,79.10
2022-10-13T17:23:51.692Z,79.20
2022-10-13T17:26:21.106Z,79.20
2022-10-13T17:28:49.694Z,79.40
2022-10-13T17:31:20.364Z,79.60
2022-10-13T17:33:49.163Z,81.60
2022-10-13T17:36:21.139Z,82.00
2022-10-13T17:38:50.417Z,80.70
2022-10-13T17:41:19.485Z,80.00
2022-10-13T17:43:52.022Z,79.40
2022-10-13T17:46:38.960Z,79.40
2022-10-13T17:49:08.549Z,79.60
2022-10-13T17:51:38.031Z,79.40
2022-10-13T17:54:10.152Z,79.40
2022-10-13T17:56:41.252Z,79.70
2022-10-13T17:59:10.018Z,79.80
2022-10-13T18:01:38.463Z,80.00
2022-10-13T18:04:09.660Z,81.20
2022-10-13T18:06:41.376Z,81.80
2022-10-13T18:09:12.188Z,82.00
2022-10-13T18:11:44.318Z,81.70
2022-10-13T18:14:15.763Z,83.50
2022-10-13T18:16:46.799Z,87.30
2022-10-13T18:19:16.759Z,85.30
2022-10-13T18:21:46.830Z,83.90
2022-10-13T18:24:15.431Z,86.30
2022-10-13T18:26:43.709Z,85.10
2022-10-13T18:29:13.249Z,83.40
2022-10-13T18:31:42.909Z,84.20
2022-10-13T18:34:14.058Z,82.60
2022-10-13T18:36:43.979Z,81.30
2022-10-13T18:39:15.460Z,80.70
2022-10-13T18:41:46.505Z,80.40
2022-10-13T18:44:15.177Z,80.50
2022-10-13T18:46:43.998Z,80.40
2022-10-13T18:49:14.130Z,80.30
2022-10-13T18:51:44.811Z,80.40
2022-10-13T18:54:14.347Z,80.70
2022-10-13T18:56:42.510Z,81.20
2022-10-13T18:59:12.330Z,81.40
2022-10-13T19:01:40.944Z,81.70
2022-10-13T19:04:12.636Z,81.80
2022-10-13T19:06:41.700Z,81.70
2022-10-13T19:09:13.787Z,81.90
2022-10-13T19:11:43.440Z,82.10
2022-10-13T19:14:14.294Z,82.30
2022-10-13T19:16:44.021Z,83.00
2022-10-13T19:19:12.448Z,82.80
2022-10-13T19:21:40.845Z,82.50
2022-10-13T19:24:10.686Z,82.50
2022-10-13T19:26:39.212Z,82.30
2022-10-13T19:29:10.341Z,82.50
2022-10-13T19:31:39.772Z,82.50
2022-10-13T19:34:12.346Z,82.50
2022-10-13T19:36:43.075Z,82.60
2022-10-13T19:39:15.970Z,83.30
2022-10-13T19:41:45.047Z,82.60
2022-10-13T19:44:15.719Z,82.70
2022-10-13T19:46:45.833Z,82.70
2022-10-13T19:49:15.725Z,82.80
2022-10-13T19:51:45.948Z,82.90
2022-10-13T19:54:14.776Z,83.10
2022-10-13T19:56:47.006Z,83.10
2022-10-13T19:59:17.686Z,83.30
2022-10-13T20:01:46.050Z,83.50
2022-10-13T20:04:15.894Z,83.60
2022-10-13T20:06:46.881Z,83.50
2022-10-13T20:09:15.475Z,83.50
2022-10-13T20:11:46.322Z,83.50
2022-10-13T20:14:16.575Z,83.30
2022-10-13T20:16:44.908Z,83.10
2022-10-13T20:19:14.089Z,83.20
2022-10-13T20:21:43.590Z,83.20
2022-10-13T20:24:13.208Z,83.40
2022-10-13T20:26:41.993Z,83.40
2022-10-13T20:29:10.257Z,83.40
2022-10-13T20:31:39.867Z,83.40
2022-10-13T20:34:07.991Z,84.00
2022-10-13T20:36:39.073Z,83.10
2022-10-13T20:39:08.864Z,83.30
2022-10-13T20:41:37.470Z,83.00
2022-10-13T20:44:05.692Z,82.60
2022-10-13T20:46:34.725Z,82.50
2022-10-13T20:49:12.963Z,82.40
2022-10-13T20:51:42.646Z,82.50
2022-10-13T20:54:11.532Z,82.60
2022-10-13T20:56:40.183Z,82.50
2022-10-13T20:59:10.132Z,82.40
2022-10-13T21:01:38.657Z,82.70
2022-10-13T21:04:08.194Z,82.60
2022-10-13T21:06:37.075Z,83.10
2022-10-13T21:09:05.802Z,82.80
2022-10-13T21:11:34.564Z,82.10
2022-10-13T21:14:06.960Z,81.60
2022-10-13T21:16:36.040Z,81.20
2022-10-13T21:19:09.049Z,80.80
2022-10-13T21:21:38.013Z,80.70
2022-10-13T21:24:08.217Z,80.80
2022-10-13T21:26:36.976Z,81.60
2022-10-13T21:29:05.736Z,80.50
2022-10-13T21:31:35.266Z,80.30
2022-10-13T21:34:03.478Z,80.30
2022-10-13T21:36:34.505Z,80.30
2022-10-13T21:39:04.863Z,80.10
2022-10-13T21:41:34.507Z,79.80
2022-10-13T21:44:03.685Z,79.70
2022-10-13T21:46:35.903Z,79.70
2022-10-13T21:49:06.693Z,79.40
2022-10-13T21:51:39.055Z,79.30
2022-10-13T21:54:09.300Z,79.20
2022-10-13T21:56:39.103Z,79.70
2022-10-13T21:59:08.490Z,80.30
2022-10-13T22:01:36.804Z,81.50
2022-10-13T22:04:12.943Z,82.20
2022-10-13T22:06:42.671Z,81.70
2022-10-13T22:09:11.499Z,81.30
2022-10-13T22:11:40.595Z,80.70
2022-10-13T22:14:12.162Z,80.30
2022-10-13T22:16:42.295Z,81.20
2022-10-13T22:19:10.652Z,80.70
2022-10-13T22:21:43.216Z,80.50
2022-10-13T22:24:14.321Z,80.70
2022-10-13T22:26:44.281Z,80.70
2022-10-13T22:29:15.361Z,80.40
2022-10-13T22:31:44.419Z,80.10
2022-10-13T22:34:13.775Z,80.20
2022-10-13T22:36:45.213Z,80.30
2022-10-13T22:39:14.510Z,80.70
2022-10-13T22:41:42.748Z,81.30
2022-10-13T22:44:11.061Z,81.60
2022-10-13T22:46:40.201Z,81.20
2022-10-13T22:49:13.332Z,80.70
2022-10-13T22:51:43.010Z,81.10
2022-10-13T22:54:11.606Z,81.00
2022-10-13T22:56:41.398Z,82.10
2022-10-13T22:59:10.360Z,80.90
2022-10-13T23:01:38.455Z,81.40
2022-10-13T23:04:06.823Z,81.40
2022-10-13T23:06:36.247Z,81.20
2022-10-13T23:09:11.436Z,81.00
2022-10-13T23:11:40.902Z,81.20
2022-10-13T23:14:12.212Z,81.20
2022-10-13T23:16:40.379Z,81.00
2022-10-13T23:19:08.672Z,80.80
2022-10-13T23:21:36.815Z,81.20
2022-10-13T23:24:08.214Z,81.00
2022-10-13T23:26:36.359Z,80.80
2022-10-13T23:29:05.041Z,80.70
2022-10-13T23:31:33.415Z,80.80
2022-10-13T23:34:01.706Z,80.70
2022-10-13T23:36:31.887Z,80.70
2022-10-13T23:39:01.698Z,80.60
2022-10-13T23:41:31.717Z,80.70
2022-10-13T23:44:00.245Z,80.30
2022-10-13T23:46:28.431Z,80.40
2022-10-13T23:48:56.675Z,80.10
2022-10-13T23:51:26.627Z,79.90
2022-10-13T23:53:55.414Z,79.80
2022-10-13T23:56:24.465Z,79.50
2022-10-13T23:58:54.021Z,79.40
